Alire, New Mexico
Current Conditions -  °F | °C
As of 9:55 PM on Thursday 30 Oct 2014 (Local Time) from KLAM Reporting Station
Clear Clear  
Wind Chill: 52°   Ceiling: Unl
Heat Index: 52°   Visibility: 10mi
Dew Point: 19°   Wind: 9mph
Humidity: 28%   Direction: 210°SSW
Pressure: 30.43"   Gusts: NA
Location:  36.4765°N, 106.58°W
Report Text: KLAM 310355Z AUTO 21008KT 10SM CLR 11/M07 A3043 RMK AO2 T01091070
Loading
Personal Weather Stations






























Interactive Weather Map
Tropical Storm Tracking
New forecast layout! Learn more

10-Day Weather Forecast

Advertisements
Track Severe Weather on mobile